Time;durP1;ratioP1;P1;durP2;ratioP2;P2;SDS_P1;SDS_P2;PMS_P1;PMS_P2;Temp;Humidity;BMP_temperature;BMP_pressure;BME280_temperature;BME280_humidity;BME280_pressure;Samples;Min_cycle;Max_cycle;Signal;HPM_P1;HPM_P2
2022/10/23 00:01:20;;;;;;;;;19.25;18.50;;;;;16.20;56.85;98684.03;4951315;28;104534;-37
2022/10/23 00:03:50;;;;;;;;;21.50;19.25;;;;;16.20;58.01;98686.75;4952782;28;102306;-37
2022/10/23 00:06:17;;;;;;;;;17.75;16.00;;;;;16.20;57.33;98692.22;4950707;28;102815;-36
2022/10/23 00:08:45;;;;;;;;;20.75;17.50;;;;;16.20;57.16;98686.75;4953617;28;102545;-37
2022/10/23 00:11:14;;;;;;;;;13.25;12.75;;;;;16.20;57.25;98697.66;4950891;28;103681;-37
2022/10/23 00:13:41;;;;;;;;;22.25;19.50;;;;;16.20;57.20;98697.66;4952341;28;102408;-37
2022/10/23 00:16:08;;;;;;;;;21.50;19.75;;;;;16.20;57.63;98705.84;4953610;28;103722;-40
2022/10/23 00:18:35;;;;;;;;;21.00;19.75;;;;;16.21;57.41;98704.78;4953937;28;102331;-37
2022/10/23 00:21:03;;;;;;;;;17.75;17.75;;;;;16.20;57.57;98698.50;4951648;28;104251;-37
2022/10/23 00:23:30;;;;;;;;;20.50;16.75;;;;;16.21;57.42;98710.25;4955671;28;102189;-37
2022/10/23 00:25:57;;;;;;;;;18.50;16.75;;;;;16.19;57.15;98706.91;4945197;28;102564;-37
2022/10/23 00:28:24;;;;;;;;;20.25;19.75;;;;;16.20;56.65;98705.84;4948150;28;102934;-37
2022/10/23 00:30:51;;;;;;;;;19.50;18.75;;;;;16.19;57.15;98712.38;4945873;28;103970;-37
2022/10/23 00:33:18;;;;;;;;;19.75;19.25;;;;;16.18;56.86;98706.06;4949106;28;103632;-37
2022/10/23 00:35:45;;;;;;;;;17.75;17.50;;;;;16.18;57.21;98705.25;4954266;28;102234;-36
2022/10/23 00:38:12;;;;;;;;;19.00;18.00;;;;;16.19;57.34;98705.03;4952421;28;103599;-37
2022/10/23 00:40:41;;;;;;;;;21.75;18.00;;;;;16.20;57.03;98700.41;4957650;28;103858;-37
2022/10/23 00:43:19;;;;;;;;;20.50;19.25;;;;;16.20;57.31;98703.13;4932620;28;102328;-37
2022/10/23 00:45:46;;;;;;;;;18.25;16.00;;;;;16.19;57.88;98690.53;4952398;28;102608;-37
2022/10/23 00:48:13;;;;;;;;;20.25;18.75;;;;;16.21;57.10;98699.34;4952901;28;102611;-37
2022/10/23 00:50:40;;;;;;;;;19.25;17.50;;;;;16.20;57.16;98709.41;4961545;28;103901;-37
2022/10/23 00:53:07;;;;;;;;;16.75;16.75;;;;;16.20;56.95;98712.16;4940844;28;102485;-37
2022/10/23 00:55:34;;;;;;;;;20.25;19.75;;;;;16.21;57.12;98702.06;4948959;28;104025;-36
2022/10/23 00:58:01;;;;;;;;;19.25;17.00;;;;;16.21;57.29;98696.59;4953752;28;103163;-37
2022/10/23 01:00:30;;;;;;;;;19.75;19.50;;;;;16.21;56.63;98707.53;4951549;28;104076;-37
2022/10/23 01:02:57;;;;;;;;;19.50;17.75;;;;;16.20;57.31;98698.50;4949368;28;102196;-37
2022/10/23 01:05:29;;;;;;;;;22.00;19.25;;;;;16.21;57.32;98710.25;4968853;28;102418;-37
2022/10/23 01:08:17;;;;;;;;;20.25;19.00;;;;;16.21;56.57;98707.53;4941372;28;102701;-37
2022/10/23 01:11:08;;;;;;;;;18.25;14.25;;;;;16.21;57.15;98712.97;4953973;28;107991;-36
2022/10/23 01:14:06;;;;;;;;;18.00;17.25;;;;;16.20;56.85;98714.03;4962156;28;102471;-37
2022/10/23 01:17:06;;;;;;;;;16.75;16.25;;;;;16.20;57.05;98714.03;4948295;28;102314;-37
2022/10/23 01:20:09;;;;;;;;;19.50;18.25;;;;;16.19;56.63;98713.19;4952409;28;102587;-36
2022/10/23 01:23:18;;;;;;;;;19.75;17.50;;;;;16.20;57.05;98724.94;4946994;28;107641;-37
2022/10/23 01:26:21;;;;;;;;;21.00;18.00;;;;;16.19;57.02;98720.56;4949700;28;102363;-37
2022/10/23 01:29:14;;;;;;;;;18.25;16.50;;;;;16.19;57.21;98720.56;4948493;28;103395;-37
2022/10/23 01:31:44;;;;;;;;;19.50;18.50;;;;;16.20;56.99;98724.94;4963971;28;103236;-37
2022/10/23 01:34:13;;;;;;;;;16.00;16.00;;;;;16.20;56.85;98720.31;4949374;28;108711;-37
2022/10/23 01:36:41;;;;;;;;;20.50;19.75;;;;;16.20;57.61;98728.50;4955165;28;102366;-37
2022/10/23 01:39:11;;;;;;;;;16.75;16.75;;;;;16.20;56.87;98730.41;4939993;28;102490;-36
2022/10/23 01:41:58;;;;;;;;;19.25;17.00;;;;;16.19;57.42;98724.13;4947374;28;102477;-36
2022/10/23 01:44:40;;;;;;;;;18.00;17.00;;;;;16.19;56.48;98728.75;4934367;28;108654;-37
2022/10/23 01:47:08;;;;;;;;;18.50;17.50;;;;;16.19;57.18;98732.31;4935829;28;102443;-37
2022/10/23 01:49:36;;;;;;;;;22.50;20.50;;;;;16.17;56.63;98726.22;4951205;28;103358;-37
2022/10/23 01:52:04;;;;;;;;;19.50;18.50;;;;;16.18;57.06;98730.63;4939340;28;103058;-37
2022/10/23 01:54:34;;;;;;;;;19.25;18.25;;;;;16.19;57.11;98734.19;4930515;28;104430;-37
2022/10/23 01:57:01;;;;;;;;;15.00;13.00;;;;;16.18;57.25;98736.09;4947454;28;102546;-37
2022/10/23 01:59:34;;;;;;;;;18.00;17.50;;;;;16.17;56.49;98730.84;4943936;28;102411;-37
2022/10/23 02:02:01;;;;;;;;;16.75;16.00;;;;;16.18;57.16;98727.06;4952843;28;102398;-37
2022/10/23 02:04:45;;;;;;;;;17.00;16.25;;;;;16.18;57.03;98729.78;4946403;28;104285;-36
2022/10/23 02:07:12;;;;;;;;;19.25;18.00;;;;;16.18;57.15;98735.25;4958510;28;102067;-37
2022/10/23 02:09:39;;;;;;;;;19.00;17.25;;;;;16.19;56.79;98732.31;4963461;28;103043;-37
2022/10/23 02:12:13;;;;;;;;;18.00;17.25;;;;;16.19;57.50;98728.75;4952905;28;102588;-37
2022/10/23 02:14:49;;;;;;;;;14.25;13.75;;;;;16.19;57.08;98720.56;4949462;28;109113;-37
2022/10/23 02:17:23;;;;;;;;;17.25;16.75;;;;;16.19;57.31;98724.13;4942775;28;103333;-37
2022/10/23 02:20:15;;;;;;;;;16.25;16.25;;;;;16.19;56.48;98732.31;4957536;28;102838;-37
2022/10/23 02:22:54;;;;;;;;;16.50;14.25;;;;;16.20;56.95;98733.97;4949975;28;102428;-37
2022/10/23 02:25:27;;;;;;;;;17.25;17.00;;;;;16.20;56.65;98735.88;4952087;28;108623;-36
2022/10/23 02:27:55;;;;;;;;;18.25;17.00;;;;;16.20;56.93;98744.06;4949786;28;102650;-37
2022/10/23 02:30:22;;;;;;;;;17.75;15.25;;;;;16.19;56.87;98745.09;4953975;28;102582;-37
2022/10/23 02:32:52;;;;;;;;;18.25;16.00;;;;;16.20;57.23;98749.50;4955750;28;103764;-37
2022/10/23 02:35:21;;;;;;;;;20.50;17.00;;;;;16.19;56.92;98742.38;4949608;28;104080;-36
2022/10/23 02:37:53;;;;;;;;;18.00;17.00;;;;;16.18;56.92;98738.81;4936773;28;103906;-37
2022/10/23 02:40:20;;;;;;;;;13.25;12.50;;;;;16.19;56.93;98739.66;4952626;28;102438;-37
2022/10/23 02:42:53;;;;;;;;;14.25;14.25;;;;;16.18;56.90;98743.44;4953543;28;102578;-36
2022/10/23 02:45:36;;;;;;;;;16.75;15.75;;;;;16.18;56.88;98748.91;4952381;28;104180;-37
2022/10/23 02:48:16;;;;;;;;;21.25;17.00;;;;;16.17;56.37;98748.06;4954107;28;105133;-37
2022/10/23 02:50:53;;;;;;;;;13.75;13.00;;;;;16.17;57.12;98758.97;4947783;28;103943;-37
2022/10/23 02:53:31;;;;;;;;;16.75;16.25;;;;;16.17;56.77;98753.50;4949605;28;102263;-37
2022/10/23 02:56:40;;;;;;;;;18.75;17.50;;;;;16.18;56.36;98760.63;4923545;28;104036;-37
2022/10/23 02:59:36;;;;;;;;;19.00;17.50;;;;;16.19;56.80;98764.22;4885469;28;103586;-37
2022/10/23 03:02:08;;;;;;;;;23.25;15.25;;;;;16.19;56.73;98765.03;4940284;28;102514;-36
2022/10/23 03:04:35;;;;;;;;;14.75;13.25;;;;;16.19;56.78;98772.38;4936514;28;103782;-37
2022/10/23 03:07:02;;;;;;;;;15.75;13.50;;;;;16.19;56.79;98773.22;4946154;28;104014;-37
2022/10/23 03:09:29;;;;;;;;;16.00;14.50;;;;;16.19;56.90;98772.38;4957342;28;103411;-37
2022/10/23 03:11:56;;;;;;;;;15.50;13.50;;;;;16.19;56.66;98766.94;4934293;28;102231;-36
2022/10/23 03:14:23;;;;;;;;;17.50;15.25;;;;;16.17;56.43;98761.69;4957177;28;102601;-36
2022/10/23 03:16:50;;;;;;;;;14.75;14.75;;;;;16.17;57.08;98753.50;4948616;28;104364;-37
2022/10/23 03:19:17;;;;;;;;;17.75;16.00;;;;;16.18;57.41;98759.81;4954254;28;102364;-37
2022/10/23 03:21:44;;;;;;;;;15.75;15.25;;;;;16.17;57.25;98760.88;4952772;28;102484;-36
2022/10/23 03:24:11;;;;;;;;;18.00;16.00;;;;;16.17;56.72;98764.44;4957716;28;103217;-37
2022/10/23 03:26:38;;;;;;;;;16.00;15.25;;;;;16.16;56.97;98760.06;4965198;28;108772;-37
2022/10/23 03:29:05;;;;;;;;;16.50;15.75;;;;;16.16;56.51;98759.22;4955160;28;102925;-37
2022/10/23 03:31:32;;;;;;;;;19.25;16.75;;;;;16.16;57.35;98767.41;4953935;28;102546;-37
2022/10/23 03:33:59;;;;;;;;;18.50;17.75;;;;;16.15;56.88;98757.56;4952617;28;102547;-37
2022/10/23 03:36:31;;;;;;;;;14.25;13.50;;;;;16.17;56.66;98760.88;4950458;28;104253;-37
2022/10/23 03:38:59;;;;;;;;;14.25;13.00;;;;;16.16;56.82;98767.41;4944982;28;103227;-37
2022/10/23 03:41:26;;;;;;;;;20.50;17.00;;;;;16.16;56.72;98762.78;4944670;28;102783;-37
2022/10/23 03:43:53;;;;;;;;;17.75;16.25;;;;;16.17;56.60;98764.44;4937063;28;102877;-36
2022/10/23 03:46:20;;;;;;;;;10.50;10.50;;;;;16.17;57.28;98764.44;4953998;28;104326;-36
2022/10/23 03:48:47;;;;;;;;;14.25;14.00;;;;;16.16;56.37;98762.78;4949325;28;103177;-37
2022/10/23 03:51:14;;;;;;;;;19.75;16.00;;;;;16.18;57.11;98782.47;4949682;28;102291;-39
2022/10/23 03:53:41;;;;;;;;;16.75;16.25;;;;;16.18;57.07;98777.00;4952734;28;103216;-37
2022/10/23 03:56:08;;;;;;;;;16.25;16.00;;;;;16.17;56.90;98780.78;4956555;28;104060;-37
2022/10/23 03:58:35;;;;;;;;;14.75;13.25;;;;;16.17;56.80;98779.97;4955156;28;102449;-37
2022/10/23 04:01:02;;;;;;;;;14.00;13.50;;;;;16.18;57.23;98787.09;4952668;28;102419;-37
2022/10/23 04:03:29;;;;;;;;;16.25;16.00;;;;;16.18;56.26;98781.63;4967415;28;102674;-37
2022/10/23 04:05:56;;;;;;;;;17.00;16.00;;;;;16.18;56.45;98789.81;4954240;28;104067;-37
2022/10/23 04:08:23;;;;;;;;;16.75;15.50;;;;;16.17;56.79;98779.97;4951322;28;102472;-37
2022/10/23 04:10:50;;;;;;;;;15.75;14.00;;;;;16.17;56.86;98769.03;4955627;28;102479;-37
2022/10/23 04:13:17;;;;;;;;;12.00;10.00;;;;;16.16;56.43;98767.41;4948935;28;102459;-37
2022/10/23 04:15:48;;;;;;;;;13.25;12.00;;;;;16.17;56.56;98771.78;4955455;28;103979;-37
2022/10/23 04:18:15;;;;;;;;;14.75;12.00;;;;;16.17;56.54;98766.31;4949900;28;103365;-38
2022/10/23 04:20:42;;;;;;;;;16.50;15.25;;;;;16.17;56.77;98774.50;4956457;28;102975;-37
2022/10/23 04:23:09;;;;;;;;;13.25;12.00;;;;;16.17;56.91;98755.41;4956409;28;103711;-37
2022/10/23 04:25:36;;;;;;;;;14.25;12.00;;;;;16.16;56.46;98762.78;4960259;28;103078;-37
2022/10/23 04:28:03;;;;;;;;;14.00;12.50;;;;;16.16;56.14;98756.50;4949172;28;102383;-37
2022/10/23 04:30:30;;;;;;;;;15.00;14.25;;;;;16.16;57.00;98762.78;4956877;28;102423;-37
2022/10/23 04:32:57;;;;;;;;;12.75;11.25;;;;;16.18;56.56;98754.34;4956586;28;103693;-37
2022/10/23 04:35:24;;;;;;;;;14.50;13.75;;;;;16.18;56.48;98754.34;4953590;28;104192;-37
2022/10/23 04:37:51;;;;;;;;;13.25;13.00;;;;;16.18;57.07;98759.81;4958525;28;102458;-37
2022/10/23 04:40:18;;;;;;;;;13.75;12.25;;;;;16.18;56.54;98748.91;4973508;28;106070;-37
2022/10/23 04:42:45;;;;;;;;;16.50;13.00;;;;;16.17;56.58;98748.06;4955033;28;102591;-37
2022/10/23 04:45:12;;;;;;;;;14.25;13.00;;;;;16.18;57.21;98746.16;4951975;28;104020;-37
2022/10/23 04:47:39;;;;;;;;;15.50;13.25;;;;;16.18;56.68;98748.91;4955462;28;102460;-36
2022/10/23 04:50:06;;;;;;;;;15.25;13.75;;;;;16.18;56.93;98748.91;4954481;28;102970;-37
2022/10/23 04:52:33;;;;;;;;;16.75;15.00;;;;;16.18;56.61;98748.91;4956979;28;111203;-37
2022/10/23 04:55:00;;;;;;;;;16.25;13.25;;;;;16.17;56.63;98764.44;4949983;28;104166;-37
2022/10/23 04:57:27;;;;;;;;;11.75;11.50;;;;;16.17;56.58;98758.13;4955310;28;102342;-37
2022/10/23 04:59:54;;;;;;;;;11.75;11.50;;;;;16.16;56.72;98760.06;4955790;28;103481;-37
2022/10/23 05:02:23;;;;;;;;;12.75;12.25;;;;;16.19;56.28;98764.22;4955909;28;102517;-37
2022/10/23 05:04:50;;;;;;;;;11.25;11.25;;;;;16.16;56.11;98740.97;4954061;28;104047;-37
2022/10/23 05:07:17;;;;;;;;;10.75;10.00;;;;;16.17;56.42;98748.06;4957001;28;103716;-37
2022/10/23 05:09:44;;;;;;;;;18.50;14.50;;;;;16.17;56.39;98730.84;4959433;28;102327;-37
2022/10/23 05:12:11;;;;;;;;;13.00;11.50;;;;;16.17;56.11;98736.31;4965748;28;102278;-37
2022/10/23 05:14:38;;;;;;;;;12.25;11.50;;;;;16.18;56.38;98743.44;4955488;28;104088;-37
2022/10/23 05:17:15;;;;;;;;;9.75;9.00;;;;;16.18;56.79;98757.06;4950809;28;102340;-37
2022/10/23 05:19:56;;;;;;;;;10.75;10.00;;;;;16.18;56.84;98751.63;4961033;28;102519;-36
2022/10/23 05:22:24;;;;;;;;;12.50;11.00;;;;;16.18;56.46;98765.25;4953614;28;102834;-37
2022/10/23 05:24:52;;;;;;;;;11.50;11.50;;;;;16.18;56.06;98757.06;4957987;28;103747;-37
2022/10/23 05:27:19;;;;;;;;;11.75;11.00;;;;;16.19;56.80;98756.03;4964521;28;103730;-37
2022/10/23 05:29:46;;;;;;;;;12.75;12.25;;;;;16.18;57.14;98755.19;4955099;28;102362;-37
2022/10/23 05:32:13;;;;;;;;;14.25;13.50;;;;;16.19;56.58;98756.03;4956448;28;102646;-37
2022/10/23 05:34:40;;;;;;;;;10.75;10.75;;;;;16.17;56.54;98758.97;4956610;28;109330;-37
2022/10/23 05:37:09;;;;;;;;;13.50;13.25;;;;;16.18;56.88;98754.34;4959399;28;103108;-36
2022/10/23 05:39:36;;;;;;;;;11.25;11.00;;;;;16.18;56.73;98751.63;4954278;28;102193;-37
2022/10/23 05:42:03;;;;;;;;;15.25;13.75;;;;;16.18;56.70;98754.34;4963262;28;102234;-37
2022/10/23 05:44:30;;;;;;;;;12.00;11.25;;;;;16.18;56.66;98766.09;4955329;28;103194;-37
2022/10/23 05:46:57;;;;;;;;;11.50;9.50;;;;;16.17;56.75;98764.44;4951026;28;102350;-37
2022/10/23 05:49:24;;;;;;;;;16.50;13.00;;;;;16.16;56.58;98764.69;4947900;28;103121;-37
2022/10/23 05:51:51;;;;;;;;;13.50;11.50;;;;;16.18;56.18;98768.00;4936851;28;102228;-37
2022/10/23 05:54:18;;;;;;;;;13.50;13.00;;;;;16.17;56.70;98774.50;4953154;28;105754;-37
2022/10/23 05:56:45;;;;;;;;;12.50;11.00;;;;;16.17;56.66;98774.50;4952022;28;102563;-37
2022/10/23 05:59:12;;;;;;;;;13.00;11.50;;;;;16.16;56.60;98786.50;4959606;28;102274;-37
2022/10/23 06:01:43;;;;;;;;;12.75;11.75;;;;;16.19;56.60;98794.22;4955142;28;102733;-37
2022/10/23 06:04:10;;;;;;;;;10.50;9.75;;;;;16.19;56.02;98791.50;4955406;28;107866;-37
2022/10/23 06:06:37;;;;;;;;;12.75;12.00;;;;;16.19;56.23;98799.66;4958957;28;102785;-37
2022/10/23 06:09:04;;;;;;;;;10.00;9.00;;;;;16.18;56.63;98803.47;4952579;28;102514;-37
2022/10/23 06:11:31;;;;;;;;;9.00;9.00;;;;;16.19;56.38;98805.13;4954158;28;103298;-37
2022/10/23 06:13:59;;;;;;;;;12.25;11.00;;;;;16.19;56.45;98805.13;4954892;28;104075;-37
2022/10/23 06:16:27;;;;;;;;;8.00;7.25;;;;;16.19;56.52;98816.03;4952314;28;102253;-37
2022/10/23 06:18:56;;;;;;;;;14.50;12.00;;;;;16.19;56.87;98811.41;4951496;28;102539;-37
2022/10/23 06:21:23;;;;;;;;;10.00;10.00;;;;;16.19;56.47;98816.03;4945979;28;102822;-37
2022/10/23 06:23:50;;;;;;;;;9.75;9.75;;;;;16.19;56.54;98818.78;4931550;28;104069;-37
2022/10/23 06:26:18;;;;;;;;;11.75;10.25;;;;;16.19;56.52;98821.50;4951597;28;103342;-37
2022/10/23 06:28:45;;;;;;;;;11.00;10.00;;;;;16.17;56.18;98819.00;4949930;28;102356;-38
2022/10/23 06:31:13;;;;;;;;;12.00;11.00;;;;;16.18;56.70;98837.03;4953089;28;102433;-37
2022/10/23 06:33:40;;;;;;;;;10.75;10.50;;;;;16.17;56.80;98839.97;4953322;28;112090;-37
2022/10/23 06:36:09;;;;;;;;;9.25;9.25;;;;;16.17;56.66;98839.97;4956587;28;102614;-37
2022/10/23 06:38:39;;;;;;;;;12.00;12.00;;;;;16.18;56.38;98836.19;4951773;28;103492;-37
2022/10/23 06:41:19;;;;;;;;;11.75;11.75;;;;;16.18;57.08;98834.31;4959883;28;102442;-37
2022/10/23 06:43:50;;;;;;;;;14.50;12.00;;;;;16.19;57.01;98833.25;4945388;28;108755;-37
2022/10/23 06:46:17;;;;;;;;;13.00;10.50;;;;;16.21;57.50;98835.75;4951083;28;102486;-37
2022/10/23 06:48:44;;;;;;;;;12.50;11.50;;;;;16.21;56.67;98843.94;4940679;28;102686;-36
2022/10/23 06:51:13;;;;;;;;;12.00;11.25;;;;;16.21;57.24;98843.94;4941264;28;102479;-37
2022/10/23 06:53:40;;;;;;;;;10.75;10.75;;;;;16.21;56.75;98836.56;4949542;28;108816;-36
2022/10/23 06:56:07;;;;;;;;;12.25;11.00;;;;;16.21;56.83;98839.28;4957265;28;102557;-37
2022/10/23 06:58:35;;;;;;;;;11.00;10.50;;;;;16.22;56.45;98842.84;4953303;28;102805;-37
2022/10/23 07:01:04;;;;;;;;;11.25;11.00;;;;;16.23;56.13;98839.06;4954850;28;102434;-37
2022/10/23 07:03:31;;;;;;;;;8.75;7.75;;;;;16.22;56.68;98843.69;4953908;28;104299;-37
2022/10/23 07:06:05;;;;;;;;;10.50;10.25;;;;;16.22;56.14;98832.78;4952296;28;102526;-36
2022/10/23 07:08:32;;;;;;;;;11.00;10.00;;;;;16.24;57.05;98827.09;4953867;28;102263;-37
2022/10/23 07:11:04;;;;;;;;;11.00;10.50;;;;;16.25;56.48;98831.50;4952177;28;102499;-37
2022/10/23 07:13:32;;;;;;;;;12.00;12.00;;;;;16.25;56.80;98836.97;4948908;28;104083;-36
2022/10/23 07:16:08;;;;;;;;;12.25;10.25;;;;;16.27;57.04;98832.09;4948906;28;102759;-37
2022/10/23 07:18:35;;;;;;;;;12.50;12.25;;;;;16.27;57.11;98835.66;4953896;28;102545;-37
2022/10/23 07:21:02;;;;;;;;;11.75;11.25;;;;;16.27;56.51;98843.84;4957589;28;102338;-37
2022/10/23 07:23:29;;;;;;;;;14.00;13.50;;;;;16.28;57.06;98844.66;4953473;28;104020;-37
2022/10/23 07:26:08;;;;;;;;;11.00;10.00;;;;;16.29;56.77;98844.44;4950925;28;103780;-36
2022/10/23 07:28:35;;;;;;;;;13.25;9.50;;;;;16.30;56.34;98850.75;4951700;28;103091;-36
2022/10/23 07:31:02;;;;;;;;;12.00;11.00;;;;;16.31;56.05;98844.19;4960407;28;102902;-37
2022/10/23 07:33:29;;;;;;;;;10.25;10.00;;;;;16.31;56.90;98833.28;4951866;28;104112;-37
2022/10/23 07:35:56;;;;;;;;;12.75;11.50;;;;;16.30;56.75;98829.72;4952538;28;103377;-36
2022/10/23 07:38:23;;;;;;;;;9.50;9.00;;;;;16.33;56.93;98833.88;4953174;28;102372;-37
2022/10/23 07:40:50;;;;;;;;;12.75;11.75;;;;;16.31;56.33;98836.84;4961803;28;102572;-37
2022/10/23 07:43:19;;;;;;;;;13.00;11.00;;;;;16.32;56.87;98838.50;4955789;28;104058;-38
2022/10/23 07:45:47;;;;;;;;;10.75;10.25;;;;;16.32;56.65;98832.22;4960989;28;109996;-37
2022/10/23 07:48:15;;;;;;;;;10.25;8.50;;;;;16.32;56.33;98827.59;4949929;28;102906;-37
2022/10/23 07:50:42;;;;;;;;;13.75;12.00;;;;;16.33;56.23;98833.88;4962139;28;102210;-37
2022/10/23 07:53:19;;;;;;;;;12.00;10.25;;;;;16.33;56.87;98828.44;4954382;28;104161;-37
2022/10/23 07:55:58;;;;;;;;;10.75;10.25;;;;;16.34;56.52;98827.38;4939023;28;103829;-36
2022/10/23 07:58:26;;;;;;;;;11.00;11.00;;;;;16.34;56.72;98820.03;4954528;28;102191;-36
2022/10/23 08:00:57;;;;;;;;;8.75;8.00;;;;;16.35;56.74;98834.47;4954945;28;102273;-36
2022/10/23 08:03:25;;;;;;;;;12.50;10.75;;;;;16.35;56.77;98838.03;4948664;28;104182;-37
2022/10/23 08:05:53;;;;;;;;;11.00;9.50;;;;;16.36;56.18;98844.34;4955095;28;102174;-36
2022/10/23 08:08:23;;;;;;;;;10.00;9.75;;;;;16.36;56.12;98836.16;4945984;28;102508;-37
2022/10/23 08:10:51;;;;;;;;;9.75;8.75;;;;;16.36;56.44;98833.41;4945467;28;103147;-37
2022/10/23 08:13:21;;;;;;;;;10.50;10.00;;;;;16.37;57.11;98840.53;4943597;28;104044;-37
2022/10/23 08:15:49;;;;;;;;;11.00;11.00;;;;;16.38;56.90;98836.75;4970611;28;102273;-37
2022/10/23 08:18:16;;;;;;;;;9.75;9.75;;;;;16.39;56.51;98846.63;4958738;28;102277;-37
2022/10/23 08:20:45;;;;;;;;;10.00;9.25;;;;;16.36;56.42;98844.34;4951232;28;102542;-37
2022/10/23 08:23:12;;;;;;;;;10.50;10.00;;;;;16.40;55.99;98851.81;4936018;28;109480;-36
2022/10/23 08:25:39;;;;;;;;;11.25;10.00;;;;;16.40;56.94;98857.28;4955989;28;103059;-37
2022/10/23 08:28:06;;;;;;;;;8.50;8.00;;;;;16.41;56.07;98852.66;4952501;28;103492;-37
2022/10/23 08:30:33;;;;;;;;;11.00;11.00;;;;;16.41;56.55;98860.84;4953739;28;102584;-37
2022/10/23 08:33:05;;;;;;;;;10.00;10.00;;;;;16.42;56.46;98865.25;4953422;28;104062;-37
2022/10/23 08:35:38;;;;;;;;;10.75;9.00;;;;;16.42;55.91;98867.97;4953008;28;102470;-37
2022/10/23 08:38:05;;;;;;;;;10.25;10.25;;;;;16.44;56.90;98874.03;4952897;28;102638;-37
2022/10/23 08:40:32;;;;;;;;;12.75;12.25;;;;;16.43;57.01;98869.66;4952498;28;102649;-37
2022/10/23 08:43:27;;;;;;;;;17.50;14.25;;;;;16.42;57.62;98867.97;4938711;28;104061;-37
2022/10/23 08:45:57;;;;;;;;;12.75;12.75;;;;;16.43;57.19;98865.03;4949728;28;102591;-37
2022/10/23 08:48:37;;;;;;;;;14.75;13.00;;;;;16.45;57.20;98872.97;4945316;28;103105;-37
2022/10/23 08:51:13;;;;;;;;;14.50;12.25;;;;;16.45;56.84;98867.50;4934545;28;102076;-37
2022/10/23 08:53:52;;;;;;;;;13.50;12.75;;;;;16.46;56.87;98867.28;4943271;28;104087;-36
2022/10/23 08:56:26;;;;;;;;;14.25;13.75;;;;;16.47;57.58;98874.41;4949848;28;102596;-37
2022/10/23 08:59:04;;;;;;;;;12.75;12.00;;;;;16.48;57.12;98872.50;4949775;28;102190;-36
2022/10/23 09:01:45;;;;;;;;;13.00;12.50;;;;;16.48;56.38;98878.78;4950626;28;103769;-37
2022/10/23 09:04:13;;;;;;;;;11.25;10.50;;;;;16.49;56.89;98882.34;4946408;28;107068;-37
2022/10/23 09:06:45;;;;;;;;;11.25;10.50;;;;;16.49;56.79;98885.09;4948956;28;102186;-36
2022/10/23 09:09:31;;;;;;;;;11.00;10.00;;;;;16.50;56.60;98879.41;4954560;28;102508;-36
2022/10/23 09:12:07;;;;;;;;;12.00;12.00;;;;;16.51;56.41;98881.06;4964792;28;102662;-37
2022/10/23 09:14:39;;;;;;;;;12.00;11.50;;;;;16.51;56.67;98880.22;4934421;28;103992;-37
2022/10/23 09:17:26;;;;;;;;;11.00;10.75;;;;;16.50;56.05;98876.66;4954742;28;102645;-37
2022/10/23 09:20:12;;;;;;;;;14.00;12.50;;;;;16.50;56.64;98878.56;4954553;28;102650;-37
2022/10/23 09:22:39;;;;;;;;;12.25;10.75;;;;;16.51;56.31;98886.53;4957520;28;102292;-37
2022/10/23 09:25:19;;;;;;;;;11.25;11.00;;;;;16.52;56.62;98892.81;4953785;28;104103;-37
2022/10/23 09:27:53;;;;;;;;;10.50;9.75;;;;;16.53;56.47;98895.31;4956110;28;102184;-36
2022/10/23 09:30:33;;;;;;;;;10.50;9.50;;;;;16.52;56.57;98895.56;4952994;28;102674;-37
2022/10/23 09:33:00;;;;;;;;;9.50;9.00;;;;;16.54;57.10;98890.69;4954397;28;102470;-37
2022/10/23 09:35:28;;;;;;;;;11.50;11.50;;;;;16.52;56.80;98887.38;4953816;28;104218;-37
2022/10/23 09:37:55;;;;;;;;;9.75;9.00;;;;;16.55;56.90;98886.88;4951572;28;103186;-37
2022/10/23 09:40:41;;;;;;;;;11.50;11.50;;;;;16.55;56.21;98881.44;4955860;28;102323;-37
2022/10/23 09:43:16;;;;;;;;;10.50;10.00;;;;;16.55;56.02;98886.88;4941004;28;102641;-37
2022/10/23 09:45:43;;;;;;;;;9.00;8.25;;;;;16.57;56.83;98886.66;4939899;28;108763;-37
2022/10/23 09:48:15;;;;;;;;;11.50;10.00;;;;;16.57;55.98;98897.59;4956157;28;102550;-37
2022/10/23 09:50:58;;;;;;;;;9.00;8.75;;;;;16.57;56.15;98890.19;4954905;28;102154;-37
2022/10/23 09:53:37;;;;;;;;;11.25;10.50;;;;;16.59;56.59;98900.94;4948583;28;102255;-37
2022/10/23 09:56:25;;;;;;;;;12.50;10.75;;;;;16.59;56.41;98906.41;4938531;28;104265;-37
2022/10/23 09:59:12;;;;;;;;;10.25;9.75;;;;;16.58;56.07;98902.84;4950991;28;102631;-37
2022/10/23 10:01:56;;;;;;;;;9.75;9.25;;;;;16.59;56.63;98901.78;4933642;28;102294;-37
2022/10/23 10:04:31;;;;;;;;;9.50;9.50;;;;;16.59;56.64;98892.75;4957245;28;102852;-37
2022/10/23 10:07:00;;;;;;;;;11.25;10.50;;;;;16.60;56.75;98900.72;4953801;28;104022;-37
2022/10/23 10:09:27;;;;;;;;;9.75;9.75;;;;;16.59;56.44;98901.78;4951864;28;102449;-37
2022/10/23 10:11:59;;;;;;;;;9.75;9.25;;;;;16.59;55.92;98899.03;4942855;28;102502;-37
2022/10/23 10:14:50;;;;;;;;;9.75;9.75;;;;;16.58;56.26;98889.19;4955751;28;102455;-37
2022/10/23 10:17:27;;;;;;;;;11.50;11.00;;;;;16.60;56.40;98878.03;4954436;28;108904;-37
2022/10/23 10:20:12;;;;;;;;;11.75;9.00;;;;;16.61;56.45;98886.00;4954842;28;102111;-37
2022/10/23 10:23:02;;;;;;;;;9.00;9.00;;;;;16.61;55.88;98886.00;4940327;28;102040;-37
2022/10/23 10:25:31;;;;;;;;;9.25;9.25;;;;;16.61;56.92;98880.53;4941486;28;102237;-37
2022/10/23 10:28:03;;;;;;;;;10.00;10.00;;;;;16.62;56.00;98879.47;4954119;28;104046;-37
2022/10/23 10:30:57;;;;;;;;;9.75;7.50;;;;;16.63;56.63;98872.94;4938417;28;102718;-37
2022/10/23 10:33:46;;;;;;;;;11.25;10.00;;;;;16.63;56.79;98866.63;4944498;28;102221;-36
2022/10/23 10:36:34;;;;;;;;;8.00;8.00;;;;;16.64;55.86;98863.69;4951145;28;102460;-37
2022/10/23 10:39:02;;;;;;;;;10.00;10.00;;;;;16.66;56.19;98861.53;4952378;28;109003;-37
2022/10/23 10:41:51;;;;;;;;;11.00;9.25;;;;;16.64;56.17;98858.22;4951493;28;102510;-37
2022/10/23 10:44:24;;;;;;;;;9.00;8.50;;;;;16.65;56.73;98848.97;4932331;28;102173;-37
2022/10/23 10:47:25;;;;;;;;;10.25;9.25;;;;;16.67;56.12;98848.72;4952903;28;102164;-36
2022/10/23 10:50:07;;;;;;;;;11.00;10.50;;;;;16.66;56.71;98842.44;4945031;28;109486;-37
2022/10/23 10:52:40;;;;;;;;;10.25;8.50;;;;;16.67;56.55;98841.38;4949816;28;102373;-37
2022/10/23 10:55:34;;;;;;;;;9.75;9.00;;;;;16.67;56.43;98824.16;4951926;28;102414;-36
2022/10/23 10:58:13;;;;;;;;;10.25;8.75;;;;;16.68;56.88;98825.81;4955359;28;102656;-37
2022/10/23 11:00:40;;;;;;;;;14.50;10.75;;;;;16.66;56.18;98823.31;4955220;28;104099;-37
2022/10/23 11:04:00;;;;;;;;;8.25;8.00;;;;;16.69;57.18;98816.56;4960039;28;102235;-36
2022/10/23 11:06:28;;;;;;;;;13.00;10.50;;;;;16.69;56.85;98822.88;4880851;28;103270;-37
2022/10/23 11:08:57;;;;;;;;;11.50;10.25;;;;;16.71;56.96;98809.78;4875420;28;102286;-37
2022/10/23 11:11:44;;;;;;;;;11.50;11.00;;;;;16.72;56.39;98807.91;4916980;28;109928;-37
2022/10/23 11:14:15;;;;;;;;;8.25;7.00;;;;;16.73;56.00;98799.47;4947459;28;103040;-37
2022/10/23 11:16:45;;;;;;;;;9.00;8.75;;;;;16.74;56.56;98798.41;4956277;28;102330;-37
2022/10/23 11:19:35;;;;;;;;;10.75;10.50;;;;;16.76;56.77;98787.25;4942155;28;102541;-37
2022/10/23 11:22:23;;;;;;;;;10.00;9.75;;;;;16.77;56.88;98787.00;4950181;28;108363;-37
2022/10/23 11:24:56;;;;;;;;;10.75;10.25;;;;;16.79;56.21;98779.44;4947474;28;102502;-37
2022/10/23 11:27:36;;;;;;;;;12.50;9.75;;;;;16.79;56.95;98779.44;4946636;28;106050;-37
2022/10/23 11:30:18;;;;;;;;;12.50;11.00;;;;;16.81;56.96;98760.88;4949814;28;102196;-37
2022/10/23 11:32:58;;;;;;;;;10.00;9.75;;;;;16.81;56.50;98769.09;4956358;28;108938;-37
2022/10/23 11:35:42;;;;;;;;;11.50;10.50;;;;;16.83;56.36;98771.59;4956372;28;103680;-37